sensor_id;sensor_type;location;lat;lon;timestamp;P1;durP1;ratioP1;P2;durP2;ratioP2
46713;SDS011;32445;51.376;10.874;2023-11-21T00:03:08;5.38;;;3.00;;
46713;SDS011;32445;51.376;10.874;2023-11-21T00:08:11;4.63;;;2.20;;
46713;SDS011;32445;51.376;10.874;2023-11-21T00:13:11;12.37;;;4.90;;
46713;SDS011;32445;51.376;10.874;2023-11-21T00:18:13;4.90;;;2.75;;
46713;SDS011;32445;51.376;10.874;2023-11-21T00:23:14;6.22;;;2.13;;
46713;SDS011;32445;51.376;10.874;2023-11-21T00:28:14;6.23;;;2.33;;
46713;SDS011;32445;51.376;10.874;2023-11-21T00:33:15;7.03;;;2.45;;
46713;SDS011;32445;51.376;10.874;2023-11-21T00:38:15;3.57;;;2.27;;
46713;SDS011;32445;51.376;10.874;2023-11-21T00:43:18;4.30;;;2.30;;
46713;SDS011;32445;51.376;10.874;2023-11-21T00:48:18;10.27;;;4.07;;
46713;SDS011;32445;51.376;10.874;2023-11-21T00:53:19;9.87;;;5.50;;
46713;SDS011;32445;51.376;10.874;2023-11-21T00:58:21;11.30;;;4.47;;
46713;SDS011;32445;51.376;10.874;2023-11-21T01:03:22;14.00;;;6.13;;
46713;SDS011;32445;51.376;10.874;2023-11-21T01:08:22;11.13;;;5.50;;
46713;SDS011;32445;51.376;10.874;2023-11-21T01:13:24;11.77;;;6.10;;
46713;SDS011;32445;51.376;10.874;2023-11-21T01:18:28;13.77;;;4.95;;
46713;SDS011;32445;51.376;10.874;2023-11-21T01:23:29;17.88;;;4.78;;
46713;SDS011;32445;51.376;10.874;2023-11-21T01:28:30;8.77;;;3.60;;
46713;SDS011;32445;51.376;10.874;2023-11-21T01:33:30;10.47;;;4.10;;
46713;SDS011;32445;51.376;10.874;2023-11-21T01:38:30;10.07;;;5.60;;
46713;SDS011;32445;51.376;10.874;2023-11-21T01:43:32;11.77;;;6.18;;
46713;SDS011;32445;51.376;10.874;2023-11-21T01:48:32;11.73;;;5.80;;
46713;SDS011;32445;51.376;10.874;2023-11-21T01:53:34;7.72;;;4.47;;
46713;SDS011;32445;51.376;10.874;2023-11-21T01:58:36;12.48;;;5.30;;
46713;SDS011;32445;51.376;10.874;2023-11-21T02:03:37;8.30;;;4.47;;
46713;SDS011;32445;51.376;10.874;2023-11-21T02:08:37;11.23;;;4.07;;
46713;SDS011;32445;51.376;10.874;2023-11-21T02:13:38;8.53;;;3.77;;
46713;SDS011;32445;51.376;10.874;2023-11-21T02:18:39;9.07;;;3.63;;
46713;SDS011;32445;51.376;10.874;2023-11-21T02:23:42;7.95;;;3.28;;
46713;SDS011;32445;51.376;10.874;2023-11-21T02:28:44;5.28;;;2.92;;
46713;SDS011;32445;51.376;10.874;2023-11-21T02:33:44;5.13;;;2.77;;
46713;SDS011;32445;51.376;10.874;2023-11-21T02:38:45;4.90;;;2.50;;
46713;SDS011;32445;51.376;10.874;2023-11-21T02:43:45;6.63;;;2.10;;
46713;SDS011;32445;51.376;10.874;2023-11-21T02:48:45;5.67;;;2.70;;
46713;SDS011;32445;51.376;10.874;2023-11-21T02:53:46;5.77;;;2.50;;
46713;SDS011;32445;51.376;10.874;2023-11-21T02:58:46;7.20;;;3.23;;
46713;SDS011;32445;51.376;10.874;2023-11-21T03:03:46;12.17;;;2.73;;
46713;SDS011;32445;51.376;10.874;2023-11-21T03:08:51;7.22;;;2.67;;
46713;SDS011;32445;51.376;10.874;2023-11-21T03:13:51;13.93;;;2.93;;
46713;SDS011;32445;51.376;10.874;2023-11-21T03:18:51;19.80;;;4.72;;
46713;SDS011;32445;51.376;10.874;2023-11-21T03:23:52;10.50;;;2.83;;
46713;SDS011;32445;51.376;10.874;2023-11-21T03:28:53;13.43;;;3.40;;
46713;SDS011;32445;51.376;10.874;2023-11-21T03:33:53;8.80;;;2.70;;
46713;SDS011;32445;51.376;10.874;2023-11-21T03:38:53;9.83;;;2.33;;
46713;SDS011;32445;51.376;10.874;2023-11-21T03:43:55;6.20;;;2.30;;
46713;SDS011;32445;51.376;10.874;2023-11-21T03:48:55;10.07;;;2.93;;
46713;SDS011;32445;51.376;10.874;2023-11-21T03:53:56;5.10;;;2.47;;
46713;SDS011;32445;51.376;10.874;2023-11-21T03:58:56;6.80;;;2.40;;
46713;SDS011;32445;51.376;10.874;2023-11-21T04:03:57;7.32;;;3.10;;
46713;SDS011;32445;51.376;10.874;2023-11-21T04:08:57;39.03;;;5.07;;
46713;SDS011;32445;51.376;10.874;2023-11-21T04:13:57;10.50;;;3.33;;
46713;SDS011;32445;51.376;10.874;2023-11-21T04:18:58;8.13;;;3.05;;
46713;SDS011;32445;51.376;10.874;2023-11-21T04:23:58;8.10;;;3.47;;
46713;SDS011;32445;51.376;10.874;2023-11-21T04:28:59;7.10;;;3.40;;
46713;SDS011;32445;51.376;10.874;2023-11-21T04:33:59;8.23;;;3.20;;
46713;SDS011;32445;51.376;10.874;2023-11-21T04:39:00;7.90;;;2.97;;
46713;SDS011;32445;51.376;10.874;2023-11-21T04:44:00;10.25;;;3.22;;
46713;SDS011;32445;51.376;10.874;2023-11-21T04:49:00;11.35;;;3.30;;
46713;SDS011;32445;51.376;10.874;2023-11-21T04:54:01;18.30;;;3.47;;
46713;SDS011;32445;51.376;10.874;2023-11-21T04:59:01;11.47;;;3.30;;
46713;SDS011;32445;51.376;10.874;2023-11-21T05:04:02;6.33;;;2.27;;
46713;SDS011;32445;51.376;10.874;2023-11-21T05:09:02;9.17;;;2.83;;
46713;SDS011;32445;51.376;10.874;2023-11-21T05:14:03;10.95;;;4.22;;
46713;SDS011;32445;51.376;10.874;2023-11-21T05:19:05;5.93;;;2.78;;
46713;SDS011;32445;51.376;10.874;2023-11-21T05:24:08;5.30;;;2.95;;
46713;SDS011;32445;51.376;10.874;2023-11-21T05:29:09;7.50;;;3.35;;
46713;SDS011;32445;51.376;10.874;2023-11-21T05:34:10;6.57;;;3.47;;
46713;SDS011;32445;51.376;10.874;2023-11-21T05:39:11;10.40;;;3.50;;
46713;SDS011;32445;51.376;10.874;2023-11-21T05:44:12;7.30;;;3.63;;
46713;SDS011;32445;51.376;10.874;2023-11-21T05:49:14;6.82;;;3.70;;
46713;SDS011;32445;51.376;10.874;2023-11-21T05:54:15;8.52;;;4.93;;
46713;SDS011;32445;51.376;10.874;2023-11-21T05:59:16;16.80;;;6.68;;
46713;SDS011;32445;51.376;10.874;2023-11-21T06:04:17;7.60;;;4.33;;
46713;SDS011;32445;51.376;10.874;2023-11-21T06:09:18;11.85;;;6.00;;
46713;SDS011;32445;51.376;10.874;2023-11-21T06:14:19;15.23;;;7.25;;
46713;SDS011;32445;51.376;10.874;2023-11-21T06:19:19;12.93;;;7.00;;
46713;SDS011;32445;51.376;10.874;2023-11-21T06:24:19;8.50;;;4.73;;
46713;SDS011;32445;51.376;10.874;2023-11-21T06:29:21;11.10;;;5.57;;
46713;SDS011;32445;51.376;10.874;2023-11-21T06:34:21;11.93;;;5.10;;
46713;SDS011;32445;51.376;10.874;2023-11-21T06:39:22;8.00;;;4.53;;
46713;SDS011;32445;51.376;10.874;2023-11-21T06:44:23;9.00;;;4.45;;
46713;SDS011;32445;51.376;10.874;2023-11-21T06:49:23;10.23;;;4.97;;
46713;SDS011;32445;51.376;10.874;2023-11-21T06:54:24;12.45;;;4.88;;
46713;SDS011;32445;51.376;10.874;2023-11-21T06:59:24;9.73;;;5.18;;
46713;SDS011;32445;51.376;10.874;2023-11-21T07:04:25;12.43;;;8.60;;
46713;SDS011;32445;51.376;10.874;2023-11-21T07:09:28;13.27;;;6.32;;
46713;SDS011;32445;51.376;10.874;2023-11-21T07:14:28;13.03;;;6.07;;
46713;SDS011;32445;51.376;10.874;2023-11-21T07:19:29;13.85;;;6.25;;
46713;SDS011;32445;51.376;10.874;2023-11-21T07:24:30;15.68;;;6.13;;
46713;SDS011;32445;51.376;10.874;2023-11-21T07:29:31;14.65;;;7.22;;
46713;SDS011;32445;51.376;10.874;2023-11-21T07:34:33;16.98;;;7.80;;
46713;SDS011;32445;51.376;10.874;2023-11-21T07:39:33;17.30;;;7.80;;
46713;SDS011;32445;51.376;10.874;2023-11-21T07:44:33;23.50;;;9.90;;
46713;SDS011;32445;51.376;10.874;2023-11-21T07:49:34;16.77;;;7.80;;
46713;SDS011;32445;51.376;10.874;2023-11-21T07:54:34;21.43;;;9.60;;
46713;SDS011;32445;51.376;10.874;2023-11-21T07:59:35;20.58;;;10.02;;
46713;SDS011;32445;51.376;10.874;2023-11-21T08:04:36;22.93;;;9.53;;
46713;SDS011;32445;51.376;10.874;2023-11-21T08:09:36;28.70;;;10.73;;
46713;SDS011;32445;51.376;10.874;2023-11-21T08:14:36;29.13;;;10.03;;
46713;SDS011;32445;51.376;10.874;2023-11-21T08:19:39;26.30;;;10.48;;
46713;SDS011;32445;51.376;10.874;2023-11-21T08:24:39;33.07;;;13.70;;
46713;SDS011;32445;51.376;10.874;2023-11-21T08:29:39;36.80;;;12.87;;
46713;SDS011;32445;51.376;10.874;2023-11-21T08:34:39;31.70;;;12.53;;
46713;SDS011;32445;51.376;10.874;2023-11-21T08:39:46;36.58;;;13.68;;
46713;SDS011;32445;51.376;10.874;2023-11-21T08:44:48;32.80;;;12.48;;
46713;SDS011;32445;51.376;10.874;2023-11-21T08:49:48;28.90;;;11.57;;
46713;SDS011;32445;51.376;10.874;2023-11-21T08:54:49;28.65;;;12.30;;
46713;SDS011;32445;51.376;10.874;2023-11-21T08:59:56;35.88;;;13.38;;
46713;SDS011;32445;51.376;10.874;2023-11-21T09:04:56;31.40;;;11.43;;
46713;SDS011;32445;51.376;10.874;2023-11-21T09:09:57;31.55;;;12.05;;
46713;SDS011;32445;51.376;10.874;2023-11-21T09:14:57;34.33;;;12.37;;
46713;SDS011;32445;51.376;10.874;2023-11-21T09:19:58;29.03;;;12.07;;
46713;SDS011;32445;51.376;10.874;2023-11-21T09:24:58;30.70;;;11.47;;
46713;SDS011;32445;51.376;10.874;2023-11-21T09:29:59;24.80;;;10.00;;
46713;SDS011;32445;51.376;10.874;2023-11-21T09:34:59;24.63;;;10.20;;
46713;SDS011;32445;51.376;10.874;2023-11-21T09:40:02;29.30;;;11.23;;
46713;SDS011;32445;51.376;10.874;2023-11-21T09:45:03;31.02;;;10.20;;
46713;SDS011;32445;51.376;10.874;2023-11-21T09:50:10;27.98;;;10.75;;
46713;SDS011;32445;51.376;10.874;2023-11-21T09:55:13;25.42;;;10.25;;
46713;SDS011;32445;51.376;10.874;2023-11-21T10:00:18;35.35;;;15.10;;
46713;SDS011;32445;51.376;10.874;2023-11-21T10:05:23;29.98;;;12.20;;
46713;SDS011;32445;51.376;10.874;2023-11-21T10:10:23;29.83;;;11.80;;
46713;SDS011;32445;51.376;10.874;2023-11-21T10:15:25;24.50;;;11.00;;
46713;SDS011;32445;51.376;10.874;2023-11-21T10:20:25;27.92;;;12.73;;
46713;SDS011;32445;51.376;10.874;2023-11-21T10:25:26;25.63;;;11.20;;
46713;SDS011;32445;51.376;10.874;2023-11-21T10:30:33;24.60;;;9.83;;
46713;SDS011;32445;51.376;10.874;2023-11-21T10:35:43;22.67;;;9.63;;
46713;SDS011;32445;51.376;10.874;2023-11-21T10:40:46;25.77;;;10.55;;
46713;SDS011;32445;51.376;10.874;2023-11-21T10:45:47;21.48;;;9.98;;
46713;SDS011;32445;51.376;10.874;2023-11-21T10:50:48;19.07;;;8.57;;
46713;SDS011;32445;51.376;10.874;2023-11-21T10:55:48;20.57;;;8.33;;
46713;SDS011;32445;51.376;10.874;2023-11-21T11:00:49;17.73;;;7.43;;
46713;SDS011;32445;51.376;10.874;2023-11-21T11:05:52;15.75;;;7.78;;
46713;SDS011;32445;51.376;10.874;2023-11-21T11:10:54;20.45;;;8.52;;
46713;SDS011;32445;51.376;10.874;2023-11-21T11:15:57;20.98;;;8.63;;
46713;SDS011;32445;51.376;10.874;2023-11-21T11:26:31;17.00;;;7.53;;
46713;SDS011;32445;51.376;10.874;2023-11-21T11:31:53;27.02;;;10.38;;
46713;SDS011;32445;51.376;10.874;2023-11-21T11:37:05;19.13;;;8.75;;
46713;SDS011;32445;51.376;10.874;2023-11-21T11:42:13;15.65;;;6.13;;
46713;SDS011;32445;51.376;10.874;2023-11-21T11:57:36;9.40;;;4.10;;
46713;SDS011;32445;51.376;10.874;2023-11-21T12:02:38;6.93;;;3.28;;
46713;SDS011;32445;51.376;10.874;2023-11-21T12:07:52;4.18;;;2.22;;
46713;SDS011;32445;51.376;10.874;2023-11-21T12:12:57;7.13;;;3.00;;
46713;SDS011;32445;51.376;10.874;2023-11-21T12:17:59;2.90;;;1.73;;
46713;SDS011;32445;51.376;10.874;2023-11-21T12:23:00;2.40;;;1.00;;
46713;SDS011;32445;51.376;10.874;2023-11-21T12:28:00;3.73;;;1.63;;
46713;SDS011;32445;51.376;10.874;2023-11-21T12:33:02;4.00;;;2.08;;
46713;SDS011;32445;51.376;10.874;2023-11-21T12:38:04;3.90;;;2.08;;
46713;SDS011;32445;51.376;10.874;2023-11-21T12:43:05;5.20;;;2.95;;
46713;SDS011;32445;51.376;10.874;2023-11-21T12:48:07;4.63;;;3.22;;
46713;SDS011;32445;51.376;10.874;2023-11-21T12:53:09;6.50;;;3.47;;
46713;SDS011;32445;51.376;10.874;2023-11-21T12:58:13;4.97;;;3.10;;
46713;SDS011;32445;51.376;10.874;2023-11-21T13:03:15;5.67;;;3.90;;
46713;SDS011;32445;51.376;10.874;2023-11-21T13:08:17;6.10;;;3.90;;
46713;SDS011;32445;51.376;10.874;2023-11-21T13:13:22;7.97;;;4.65;;
46713;SDS011;32445;51.376;10.874;2023-11-21T13:18:24;12.68;;;6.00;;
46713;SDS011;32445;51.376;10.874;2023-11-21T13:23:28;10.55;;;6.00;;
46713;SDS011;32445;51.376;10.874;2023-11-21T13:28:29;12.23;;;6.40;;
46713;SDS011;32445;51.376;10.874;2023-11-21T13:33:32;10.05;;;5.78;;
46713;SDS011;32445;51.376;10.874;2023-11-21T13:38:37;13.00;;;5.97;;
46713;SDS011;32445;51.376;10.874;2023-11-21T13:43:42;10.32;;;5.38;;
46713;SDS011;32445;51.376;10.874;2023-11-21T13:48:48;11.40;;;6.10;;
46713;SDS011;32445;51.376;10.874;2023-11-21T13:53:55;10.50;;;5.95;;
46713;SDS011;32445;51.376;10.874;2023-11-21T13:58:55;9.67;;;5.47;;
46713;SDS011;32445;51.376;10.874;2023-11-21T14:03:56;8.10;;;4.97;;
46713;SDS011;32445;51.376;10.874;2023-11-21T14:09:01;7.55;;;4.75;;
46713;SDS011;32445;51.376;10.874;2023-11-21T14:14:05;10.75;;;5.28;;
46713;SDS011;32445;51.376;10.874;2023-11-21T14:19:06;9.77;;;5.30;;
46713;SDS011;32445;51.376;10.874;2023-11-21T14:24:14;9.95;;;5.60;;
46713;SDS011;32445;51.376;10.874;2023-11-21T14:29:18;8.63;;;5.13;;
46713;SDS011;32445;51.376;10.874;2023-11-21T14:34:23;12.18;;;5.82;;
46713;SDS011;32445;51.376;10.874;2023-11-21T14:39:24;8.27;;;5.10;;
46713;SDS011;32445;51.376;10.874;2023-11-21T14:44:27;9.35;;;5.03;;
46713;SDS011;32445;51.376;10.874;2023-11-21T14:49:32;8.32;;;4.88;;
46713;SDS011;32445;51.376;10.874;2023-11-21T14:54:45;9.85;;;4.85;;
46713;SDS011;32445;51.376;10.874;2023-11-21T14:59:47;11.70;;;4.90;;
46713;SDS011;32445;51.376;10.874;2023-11-21T15:04:52;9.05;;;5.15;;
46713;SDS011;32445;51.376;10.874;2023-11-21T15:09:56;10.95;;;5.50;;
46713;SDS011;32445;51.376;10.874;2023-11-21T15:14:56;7.43;;;4.67;;
46713;SDS011;32445;51.376;10.874;2023-11-21T15:19:57;7.60;;;4.50;;
46713;SDS011;32445;51.376;10.874;2023-11-21T15:25:00;10.40;;;4.82;;
46713;SDS011;32445;51.376;10.874;2023-11-21T15:30:08;7.90;;;3.40;;
46713;SDS011;32445;51.376;10.874;2023-11-21T15:35:08;6.13;;;3.70;;
46713;SDS011;32445;51.376;10.874;2023-11-21T15:40:13;8.43;;;3.95;;
46713;SDS011;32445;51.376;10.874;2023-11-21T15:45:15;12.05;;;3.78;;
46713;SDS011;32445;51.376;10.874;2023-11-21T15:50:18;6.43;;;3.25;;
46713;SDS011;32445;51.376;10.874;2023-11-21T15:55:19;7.90;;;4.00;;
46713;SDS011;32445;51.376;10.874;2023-11-21T16:00:19;6.43;;;3.10;;
46713;SDS011;32445;51.376;10.874;2023-11-21T16:05:22;6.47;;;3.35;;
46713;SDS011;32445;51.376;10.874;2023-11-21T16:10:25;5.55;;;3.28;;
46713;SDS011;32445;51.376;10.874;2023-11-21T16:15:26;6.03;;;3.23;;
46713;SDS011;32445;51.376;10.874;2023-11-21T16:20:26;6.63;;;3.10;;
46713;SDS011;32445;51.376;10.874;2023-11-21T16:25:27;8.73;;;5.10;;
46713;SDS011;32445;51.376;10.874;2023-11-21T16:30:27;6.07;;;3.30;;
46713;SDS011;32445;51.376;10.874;2023-11-21T16:35:27;6.43;;;3.30;;
46713;SDS011;32445;51.376;10.874;2023-11-21T16:40:28;6.70;;;3.55;;
46713;SDS011;32445;51.376;10.874;2023-11-21T16:45:28;7.77;;;3.03;;
46713;SDS011;32445;51.376;10.874;2023-11-21T16:50:29;4.40;;;2.80;;
46713;SDS011;32445;51.376;10.874;2023-11-21T16:55:29;5.75;;;3.30;;
46713;SDS011;32445;51.376;10.874;2023-11-21T17:00:30;4.70;;;3.07;;
46713;SDS011;32445;51.376;10.874;2023-11-21T17:05:30;7.60;;;3.20;;
46713;SDS011;32445;51.376;10.874;2023-11-21T17:10:31;4.93;;;2.92;;
46713;SDS011;32445;51.376;10.874;2023-11-21T17:15:32;5.23;;;3.10;;
46713;SDS011;32445;51.376;10.874;2023-11-21T17:20:32;4.73;;;3.23;;
46713;SDS011;32445;51.376;10.874;2023-11-21T17:25:32;7.00;;;3.63;;
46713;SDS011;32445;51.376;10.874;2023-11-21T17:30:33;5.40;;;3.03;;
46713;SDS011;32445;51.376;10.874;2023-11-21T17:35:33;6.23;;;3.03;;
46713;SDS011;32445;51.376;10.874;2023-11-21T17:40:33;6.80;;;3.20;;
46713;SDS011;32445;51.376;10.874;2023-11-21T17:45:35;7.15;;;3.58;;
46713;SDS011;32445;51.376;10.874;2023-11-21T17:50:35;6.83;;;3.10;;
46713;SDS011;32445;51.376;10.874;2023-11-21T17:55:36;7.73;;;3.43;;
46713;SDS011;32445;51.376;10.874;2023-11-21T18:00:36;4.93;;;3.20;;
46713;SDS011;32445;51.376;10.874;2023-11-21T18:05:39;6.27;;;3.50;;
46713;SDS011;32445;51.376;10.874;2023-11-21T18:10:40;7.38;;;3.65;;
46713;SDS011;32445;51.376;10.874;2023-11-21T18:15:41;10.07;;;3.50;;
46713;SDS011;32445;51.376;10.874;2023-11-21T18:20:41;5.90;;;3.30;;
46713;SDS011;32445;51.376;10.874;2023-11-21T18:25:41;5.43;;;3.10;;
46713;SDS011;32445;51.376;10.874;2023-11-21T18:30:44;8.50;;;3.53;;
46713;SDS011;32445;51.376;10.874;2023-11-21T18:35:45;7.53;;;3.90;;
46713;SDS011;32445;51.376;10.874;2023-11-21T18:40:48;5.95;;;3.33;;
46713;SDS011;32445;51.376;10.874;2023-11-21T18:45:48;6.10;;;3.13;;
46713;SDS011;32445;51.376;10.874;2023-11-21T18:50:49;4.67;;;3.07;;
46713;SDS011;32445;51.376;10.874;2023-11-21T18:55:51;5.95;;;3.20;;
46713;SDS011;32445;51.376;10.874;2023-11-21T19:00:52;6.17;;;3.37;;
46713;SDS011;32445;51.376;10.874;2023-11-21T19:05:52;5.53;;;3.22;;
46713;SDS011;32445;51.376;10.874;2023-11-21T19:10:53;10.90;;;3.42;;
46713;SDS011;32445;51.376;10.874;2023-11-21T19:15:54;5.30;;;3.03;;
46713;SDS011;32445;51.376;10.874;2023-11-21T19:20:55;4.93;;;2.67;;
46713;SDS011;32445;51.376;10.874;2023-11-21T19:26:13;5.55;;;3.08;;
46713;SDS011;32445;51.376;10.874;2023-11-21T19:31:24;7.35;;;3.67;;
46713;SDS011;32445;51.376;10.874;2023-11-21T19:36:33;5.50;;;3.55;;
46713;SDS011;32445;51.376;10.874;2023-11-21T19:41:43;5.75;;;2.95;;
46713;SDS011;32445;51.376;10.874;2023-11-21T19:46:48;5.40;;;2.35;;
46713;SDS011;32445;51.376;10.874;2023-11-21T19:51:49;5.90;;;2.97;;
46713;SDS011;32445;51.376;10.874;2023-11-21T19:56:51;5.70;;;3.15;;
46713;SDS011;32445;51.376;10.874;2023-11-21T20:01:52;9.88;;;3.53;;
46713;SDS011;32445;51.376;10.874;2023-11-21T20:06:52;10.10;;;3.13;;
46713;SDS011;32445;51.376;10.874;2023-11-21T20:11:56;8.68;;;3.20;;
46713;SDS011;32445;51.376;10.874;2023-11-21T20:16:59;5.55;;;3.15;;
46713;SDS011;32445;51.376;10.874;2023-11-21T20:22:15;5.82;;;3.00;;
46713;SDS011;32445;51.376;10.874;2023-11-21T20:27:22;8.30;;;3.78;;
46713;SDS011;32445;51.376;10.874;2023-11-21T20:32:30;5.50;;;3.10;;
46713;SDS011;32445;51.376;10.874;2023-11-21T20:37:31;5.50;;;3.50;;
46713;SDS011;32445;51.376;10.874;2023-11-21T20:42:33;5.38;;;3.00;;
46713;SDS011;32445;51.376;10.874;2023-11-21T20:47:47;7.00;;;3.10;;
46713;SDS011;32445;51.376;10.874;2023-11-21T20:52:55;4.85;;;3.00;;
46713;SDS011;32445;51.376;10.874;2023-11-21T20:57:55;7.88;;;3.55;;
46713;SDS011;32445;51.376;10.874;2023-11-21T21:02:59;4.93;;;2.47;;
46713;SDS011;32445;51.376;10.874;2023-11-21T21:07:59;6.03;;;2.30;;
46713;SDS011;32445;51.376;10.874;2023-11-21T21:13:00;4.10;;;2.53;;
46713;SDS011;32445;51.376;10.874;2023-11-21T21:18:00;4.70;;;2.60;;
46713;SDS011;32445;51.376;10.874;2023-11-21T21:23:05;5.30;;;2.75;;
46713;SDS011;32445;51.376;10.874;2023-11-21T21:28:05;7.53;;;3.07;;
46713;SDS011;32445;51.376;10.874;2023-11-21T21:33:05;6.77;;;2.63;;
46713;SDS011;32445;51.376;10.874;2023-11-21T21:38:06;5.20;;;2.40;;
46713;SDS011;32445;51.376;10.874;2023-11-21T21:43:07;5.38;;;2.55;;
46713;SDS011;32445;51.376;10.874;2023-11-21T21:48:07;4.40;;;2.40;;
46713;SDS011;32445;51.376;10.874;2023-11-21T21:53:07;4.63;;;2.33;;
46713;SDS011;32445;51.376;10.874;2023-11-21T21:58:12;5.63;;;2.53;;
46713;SDS011;32445;51.376;10.874;2023-11-21T22:03:12;5.63;;;2.42;;
46713;SDS011;32445;51.376;10.874;2023-11-21T22:08:13;5.23;;;2.90;;
46713;SDS011;32445;51.376;10.874;2023-11-21T22:13:13;6.75;;;2.97;;
46713;SDS011;32445;51.376;10.874;2023-11-21T22:18:14;5.07;;;2.57;;
46713;SDS011;32445;51.376;10.874;2023-11-21T22:23:14;5.80;;;2.87;;
46713;SDS011;32445;51.376;10.874;2023-11-21T22:28:14;5.07;;;2.67;;
46713;SDS011;32445;51.376;10.874;2023-11-21T22:33:15;9.67;;;2.83;;
46713;SDS011;32445;51.376;10.874;2023-11-21T22:38:15;6.77;;;2.57;;
46713;SDS011;32445;51.376;10.874;2023-11-21T22:43:16;4.85;;;2.45;;
46713;SDS011;32445;51.376;10.874;2023-11-21T22:48:16;5.27;;;2.47;;
46713;SDS011;32445;51.376;10.874;2023-11-21T22:53:17;8.20;;;2.90;;
46713;SDS011;32445;51.376;10.874;2023-11-21T22:58:17;6.27;;;2.90;;
46713;SDS011;32445;51.376;10.874;2023-11-21T23:03:18;9.50;;;3.00;;
46713;SDS011;32445;51.376;10.874;2023-11-21T23:08:18;5.77;;;3.80;;
46713;SDS011;32445;51.376;10.874;2023-11-21T23:13:18;5.73;;;3.37;;
46713;SDS011;32445;51.376;10.874;2023-11-21T23:18:19;6.95;;;3.08;;
46713;SDS011;32445;51.376;10.874;2023-11-21T23:23:27;5.88;;;2.72;;
46713;SDS011;32445;51.376;10.874;2023-11-21T23:28:28;5.93;;;2.87;;
46713;SDS011;32445;51.376;10.874;2023-11-21T23:33:28;5.43;;;2.83;;
46713;SDS011;32445;51.376;10.874;2023-11-21T23:38:30;6.05;;;3.00;;
46713;SDS011;32445;51.376;10.874;2023-11-21T23:43:30;8.50;;;3.20;;
46713;SDS011;32445;51.376;10.874;2023-11-21T23:48:31;8.47;;;2.73;;
46713;SDS011;32445;51.376;10.874;2023-11-21T23:53:31;6.27;;;3.00;;
46713;SDS011;32445;51.376;10.874;2023-11-21T23:58:33;11.77;;;3.22;;
